sensor_id;sensor_type;location;lat;lon;timestamp;P1;durP1;ratioP1;P2;durP2;ratioP2
14320;SDS011;7244;47.364;8.464;2024-03-02T00:03:02;7;;;6;;
14320;SDS011;7244;47.364;8.464;2024-03-02T00:19:02;7;;;6;;
14320;SDS011;7244;47.364;8.464;2024-03-02T00:35:04;4;;;4;;
14320;SDS011;7244;47.364;8.464;2024-03-02T00:51:02;5;;;4;;
14320;SDS011;7244;47.364;8.464;2024-03-02T01:07:01;4;;;4;;
14320;SDS011;7244;47.364;8.464;2024-03-02T01:24:02;3;;;3;;
14320;SDS011;7244;47.364;8.464;2024-03-02T01:40:02;4;;;3;;
14320;SDS011;7244;47.364;8.464;2024-03-02T01:56:02;5;;;4;;
14320;SDS011;7244;47.364;8.464;2024-03-02T02:12:02;6;;;5;;
14320;SDS011;7244;47.364;8.464;2024-03-02T02:29:01;6;;;6;;
14320;SDS011;7244;47.364;8.464;2024-03-02T02:45:01;6;;;5;;
14320;SDS011;7244;47.364;8.464;2024-03-02T03:01:02;3;;;3;;
14320;SDS011;7244;47.364;8.464;2024-03-02T03:17:02;3;;;3;;
14320;SDS011;7244;47.364;8.464;2024-03-02T03:34:01;4;;;2;;
14320;SDS011;7244;47.364;8.464;2024-03-02T03:50:02;3;;;2;;
14320;SDS011;7244;47.364;8.464;2024-03-02T04:05:02;2;;;2;;
14320;SDS011;7244;47.364;8.464;2024-03-02T04:21:01;2;;;2;;
14320;SDS011;7244;47.364;8.464;2024-03-02T04:37:02;2;;;2;;
14320;SDS011;7244;47.364;8.464;2024-03-02T04:53:01;2;;;2;;
14320;SDS011;7244;47.364;8.464;2024-03-02T05:08:02;2;;;2;;
14320;SDS011;7244;47.364;8.464;2024-03-02T05:24:01;1;;;1;;
14320;SDS011;7244;47.364;8.464;2024-03-02T05:40:02;2;;;2;;
14320;SDS011;7244;47.364;8.464;2024-03-02T05:56:02;2;;;2;;
14320;SDS011;7244;47.364;8.464;2024-03-02T06:11:01;2;;;2;;
14320;SDS011;7244;47.364;8.464;2024-03-02T06:27:01;1;;;1;;
14320;SDS011;7244;47.364;8.464;2024-03-02T06:43:01;2;;;2;;
14320;SDS011;7244;47.364;8.464;2024-03-02T06:58:02;2;;;2;;
14320;SDS011;7244;47.364;8.464;2024-03-02T07:14:02;2;;;2;;
14320;SDS011;7244;47.364;8.464;2024-03-02T07:30:01;2;;;1;;
14320;SDS011;7244;47.364;8.464;2024-03-02T07:46:02;2;;;2;;
14320;SDS011;7244;47.364;8.464;2024-03-02T08:01:01;5;;;4;;
14320;SDS011;7244;47.364;8.464;2024-03-02T08:18:02;5;;;5;;
14320;SDS011;7244;47.364;8.464;2024-03-02T08:34:02;7;;;6;;
14320;SDS011;7244;47.364;8.464;2024-03-02T08:50:02;10;;;8;;
14320;SDS011;7244;47.364;8.464;2024-03-02T09:06:01;11;;;9;;
14320;SDS011;7244;47.364;8.464;2024-03-02T09:22:02;12;;;11;;
14320;SDS011;7244;47.364;8.464;2024-03-02T09:39:02;9;;;8;;
14320;SDS011;7244;47.364;8.464;2024-03-02T09:55:02;11;;;8;;
14320;SDS011;7244;47.364;8.464;2024-03-02T10:11:01;11;;;8;;
14320;SDS011;7244;47.364;8.464;2024-03-02T10:12:03;11;;;8;;
14320;SDS011;7244;47.364;8.464;2024-03-02T10:13:03;11;;;8;;
14320;SDS011;7244;47.364;8.464;2024-03-02T10:14:05;11;;;8;;
14320;SDS011;7244;47.364;8.464;2024-03-02T10:15:03;11;;;8;;
14320;SDS011;7244;47.364;8.464;2024-03-02T10:16:04;11;;;8;;
14320;SDS011;7244;47.364;8.464;2024-03-02T10:17:02;11;;;8;;
14320;SDS011;7244;47.364;8.464;2024-03-02T10:18:02;11;;;8;;
14320;SDS011;7244;47.364;8.464;2024-03-02T10:19:18;11;;;8;;
14320;SDS011;7244;47.364;8.464;2024-03-02T10:20:20;11;;;8;;
14320;SDS011;7244;47.364;8.464;2024-03-02T10:21:10;11;;;8;;
14320;SDS011;7244;47.364;8.464;2024-03-02T10:22:02;11;;;8;;
14320;SDS011;7244;47.364;8.464;2024-03-02T10:23:09;11;;;8;;
14320;SDS011;7244;47.364;8.464;2024-03-02T10:24:06;11;;;8;;
14320;SDS011;7244;47.364;8.464;2024-03-02T10:25:02;11;;;8;;
14320;SDS011;7244;47.364;8.464;2024-03-02T10:26:02;11;;;8;;
14320;SDS011;7244;47.364;8.464;2024-03-02T10:27:01;9;;;9;;
14320;SDS011;7244;47.364;8.464;2024-03-02T10:44:02;7;;;6;;
14320;SDS011;7244;47.364;8.464;2024-03-02T11:00:03;8;;;7;;
14320;SDS011;7244;47.364;8.464;2024-03-02T11:16:03;8;;;7;;
14320;SDS011;7244;47.364;8.464;2024-03-02T11:17:02;8;;;7;;
14320;SDS011;7244;47.364;8.464;2024-03-02T11:18:03;8;;;7;;
14320;SDS011;7244;47.364;8.464;2024-03-02T11:19:02;8;;;7;;
14320;SDS011;7244;47.364;8.464;2024-03-02T11:20:02;8;;;7;;
14320;SDS011;7244;47.364;8.464;2024-03-02T11:21:02;8;;;7;;
14320;SDS011;7244;47.364;8.464;2024-03-02T11:22:02;8;;;7;;
14320;SDS011;7244;47.364;8.464;2024-03-02T11:23:04;8;;;7;;
14320;SDS011;7244;47.364;8.464;2024-03-02T11:24:13;8;;;7;;
14320;SDS011;7244;47.364;8.464;2024-03-02T11:25:02;8;;;7;;
14320;SDS011;7244;47.364;8.464;2024-03-02T11:26:17;8;;;7;;
14320;SDS011;7244;47.364;8.464;2024-03-02T11:27:03;8;;;7;;
14320;SDS011;7244;47.364;8.464;2024-03-02T11:28:02;8;;;7;;
14320;SDS011;7244;47.364;8.464;2024-03-02T11:29:02;8;;;7;;
14320;SDS011;7244;47.364;8.464;2024-03-02T11:30:02;8;;;7;;
14320;SDS011;7244;47.364;8.464;2024-03-02T11:31:02;6;;;5;;
14320;SDS011;7244;47.364;8.464;2024-03-02T11:47:02;6;;;5;;
14320;SDS011;7244;47.364;8.464;2024-03-02T12:03:04;5;;;5;;
14320;SDS011;7244;47.364;8.464;2024-03-02T12:19:01;5;;;5;;
14320;SDS011;7244;47.364;8.464;2024-03-02T12:35:03;6;;;5;;
14320;SDS011;7244;47.364;8.464;2024-03-02T12:50:02;5;;;4;;
14320;SDS011;7244;47.364;8.464;2024-03-02T13:06:02;5;;;4;;
14320;SDS011;7244;47.364;8.464;2024-03-02T13:22:02;5;;;4;;
14320;SDS011;7244;47.364;8.464;2024-03-02T13:38:02;4;;;4;;
14320;SDS011;7244;47.364;8.464;2024-03-02T13:53:02;3;;;3;;
14320;SDS011;7244;47.364;8.464;2024-03-02T14:09:02;3;;;2;;
14320;SDS011;7244;47.364;8.464;2024-03-02T14:25:02;3;;;3;;
14320;SDS011;7244;47.364;8.464;2024-03-02T14:40:02;3;;;3;;
14320;SDS011;7244;47.364;8.464;2024-03-02T14:56:01;3;;;3;;
14320;SDS011;7244;47.364;8.464;2024-03-02T15:12:02;3;;;2;;
14320;SDS011;7244;47.364;8.464;2024-03-02T15:28:02;2;;;2;;
14320;SDS011;7244;47.364;8.464;2024-03-02T15:43:01;3;;;3;;
14320;SDS011;7244;47.364;8.464;2024-03-02T15:59:02;3;;;2;;
14320;SDS011;7244;47.364;8.464;2024-03-02T16:15:01;2;;;2;;
14320;SDS011;7244;47.364;8.464;2024-03-02T16:31:01;2;;;2;;
14320;SDS011;7244;47.364;8.464;2024-03-02T16:46:02;1;;;1;;
14320;SDS011;7244;47.364;8.464;2024-03-02T17:02:01;2;;;2;;
14320;SDS011;7244;47.364;8.464;2024-03-02T17:18:02;2;;;2;;
14320;SDS011;7244;47.364;8.464;2024-03-02T17:33:01;2;;;2;;
14320;SDS011;7244;47.364;8.464;2024-03-02T17:49:02;2;;;2;;
14320;SDS011;7244;47.364;8.464;2024-03-02T18:05:01;2;;;2;;
14320;SDS011;7244;47.364;8.464;2024-03-02T18:21:03;3;;;2;;
14320;SDS011;7244;47.364;8.464;2024-03-02T18:36:01;2;;;2;;
14320;SDS011;7244;47.364;8.464;2024-03-02T18:52:01;2;;;1;;
14320;SDS011;7244;47.364;8.464;2024-03-02T19:08:02;2;;;2;;
14320;SDS011;7244;47.364;8.464;2024-03-02T19:24:02;2;;;2;;
14320;SDS011;7244;47.364;8.464;2024-03-02T19:39:02;3;;;2;;
14320;SDS011;7244;47.364;8.464;2024-03-02T19:55:02;4;;;3;;
14320;SDS011;7244;47.364;8.464;2024-03-02T20:11:01;3;;;3;;
14320;SDS011;7244;47.364;8.464;2024-03-02T20:26:01;2;;;2;;
14320;SDS011;7244;47.364;8.464;2024-03-02T20:42:02;3;;;2;;
14320;SDS011;7244;47.364;8.464;2024-03-02T20:58:01;3;;;3;;
14320;SDS011;7244;47.364;8.464;2024-03-02T21:14:02;3;;;3;;
14320;SDS011;7244;47.364;8.464;2024-03-02T21:29:02;4;;;3;;
14320;SDS011;7244;47.364;8.464;2024-03-02T21:45:01;4;;;3;;
14320;SDS011;7244;47.364;8.464;2024-03-02T22:01:01;3;;;3;;
14320;SDS011;7244;47.364;8.464;2024-03-02T22:17:02;4;;;4;;
14320;SDS011;7244;47.364;8.464;2024-03-02T22:32:01;4;;;3;;
14320;SDS011;7244;47.364;8.464;2024-03-02T22:48:02;4;;;3;;
14320;SDS011;7244;47.364;8.464;2024-03-02T23:04:02;4;;;3;;
14320;SDS011;7244;47.364;8.464;2024-03-02T23:19:01;4;;;4;;
14320;SDS011;7244;47.364;8.464;2024-03-02T23:35:02;4;;;4;;
14320;SDS011;7244;47.364;8.464;2024-03-02T23:51:02;4;;;4;;
